createdAt,value
2023-03-18T00:00:11.379Z,5.69
2023-03-18T00:02:40.173Z,6.09
2023-03-18T00:05:10.545Z,5.91
2023-03-18T00:07:38.152Z,5.52
2023-03-18T00:10:07.556Z,5.79
2023-03-18T00:12:35.283Z,5.88
2023-03-18T00:15:02.789Z,5.85
2023-03-18T00:17:30.254Z,5.45
2023-03-18T00:19:57.738Z,5.61
2023-03-18T00:22:26.592Z,5.72
2023-03-18T00:24:54.776Z,5.72
2023-03-18T00:27:22.523Z,5.82
2023-03-18T00:29:50.545Z,5.64
2023-03-18T00:32:18.126Z,5.77
2023-03-18T00:34:46.450Z,5.73
2023-03-18T00:37:18.879Z,5.56
2023-03-18T00:39:47.793Z,5.53
2023-03-18T00:42:15.739Z,5.27
2023-03-18T00:44:44.068Z,5.27
2023-03-18T00:47:11.616Z,5.66
2023-03-18T00:49:39.312Z,5.74
2023-03-18T00:52:07.435Z,5.61
2023-03-18T00:54:35.776Z,5.64
2023-03-18T00:57:05.415Z,5.63
2023-03-18T00:59:33.171Z,5.46
2023-03-18T01:02:00.697Z,5.53
2023-03-18T01:04:28.977Z,5.35
2023-03-18T01:06:57.108Z,5.37
2023-03-18T01:09:24.876Z,5.38
2023-03-18T01:11:52.919Z,5.36
2023-03-18T01:14:21.863Z,5.34
2023-03-18T01:16:49.589Z,5.32
2023-03-18T01:19:17.143Z,5.36
2023-03-18T01:21:44.933Z,5.14
2023-03-18T01:24:13.114Z,5.26
2023-03-18T01:26:40.629Z,5.32
2023-03-18T01:29:08.128Z,5.36
2023-03-18T01:31:37.700Z,5.11
2023-03-18T01:34:05.656Z,5.15
2023-03-18T01:36:33.301Z,5.18
2023-03-18T01:39:00.863Z,5.14
2023-03-18T01:41:28.711Z,5.07
2023-03-18T01:43:56.389Z,5.16
2023-03-18T01:46:40.612Z,5.20
2023-03-18T01:49:12.711Z,5.11
2023-03-18T01:51:42.968Z,5.21
2023-03-18T01:54:12.828Z,5.17
2023-03-18T01:56:43.959Z,4.79
2023-03-18T01:59:12.260Z,4.85
2023-03-18T02:01:46.613Z,4.94
2023-03-18T02:06:41.143Z,4.89
2023-03-18T02:09:09.345Z,4.88
2023-03-18T02:11:39.668Z,4.69
2023-03-18T02:14:09.603Z,4.78
2023-03-18T02:16:47.346Z,4.77
2023-03-18T02:19:27.380Z,4.83
2023-03-18T02:22:02.082Z,4.89
2023-03-18T02:24:39.170Z,4.84
2023-03-18T02:27:16.975Z,4.81
2023-03-18T02:29:45.362Z,4.75
2023-03-18T02:32:14.824Z,4.75
2023-03-18T02:34:43.912Z,4.74
2023-03-18T02:37:11.449Z,4.76
2023-03-18T02:39:39.081Z,4.68
2023-03-18T02:42:07.051Z,4.77
2023-03-18T02:44:41.211Z,4.84
2023-03-18T02:47:12.262Z,4.83
2023-03-18T02:49:39.742Z,4.73
2023-03-18T02:52:07.580Z,4.67
2023-03-18T02:54:35.042Z,4.67
2023-03-18T02:57:02.873Z,4.65
2023-03-18T02:59:32.325Z,4.62
2023-03-18T03:02:02.051Z,4.68
2023-03-18T03:04:30.511Z,4.66
2023-03-18T03:07:01.404Z,4.72
2023-03-18T03:09:28.923Z,4.70
2023-03-18T03:11:56.392Z,4.72
2023-03-18T03:14:23.921Z,4.48
2023-03-18T03:16:51.833Z,4.76
2023-03-18T03:19:20.680Z,4.86
2023-03-18T03:21:48.395Z,4.79
2023-03-18T03:24:16.323Z,4.82
2023-03-18T03:26:43.801Z,4.72
2023-03-18T03:29:12.561Z,4.84
2023-03-18T03:31:40.483Z,4.87
2023-03-18T03:34:08.295Z,4.85
2023-03-18T03:36:37.210Z,4.82
2023-03-18T03:39:06.095Z,4.79
2023-03-18T03:41:33.916Z,4.82
2023-03-18T03:44:01.394Z,4.86
2023-03-18T03:46:28.892Z,4.83
2023-03-18T03:48:56.355Z,4.79
2023-03-18T03:51:23.925Z,4.89
2023-03-18T03:53:52.749Z,4.90
2023-03-18T03:56:20.327Z,4.90
2023-03-18T03:58:47.868Z,4.83
2023-03-18T04:01:15.419Z,4.72
2023-03-18T04:03:42.894Z,4.78
2023-03-18T04:06:11.103Z,4.80
2023-03-18T04:08:38.601Z,4.84
2023-03-18T04:11:07.515Z,4.86
2023-03-18T04:13:34.987Z,4.85
2023-03-18T04:16:02.497Z,4.84
2023-03-18T04:18:29.949Z,4.27
2023-03-18T04:20:57.509Z,3.92
2023-03-18T04:23:25.627Z,4.31
2023-03-18T04:25:53.365Z,4.44
2023-03-18T04:28:22.184Z,4.69
2023-03-18T04:30:50.513Z,4.77
2023-03-18T04:33:18.033Z,4.93
2023-03-18T04:35:45.555Z,4.96
2023-03-18T04:38:13.121Z,5.01
2023-03-18T04:40:40.865Z,5.09
2023-03-18T04:43:09.921Z,5.10
2023-03-18T04:45:38.825Z,5.10
2023-03-18T04:48:06.828Z,4.95
2023-03-18T04:50:34.361Z,5.08
2023-03-18T04:53:01.870Z,5.11
2023-03-18T04:55:29.442Z,5.07
2023-03-18T04:57:56.954Z,5.13
2023-03-18T05:00:24.834Z,5.12
2023-03-18T05:02:53.651Z,5.13
2023-03-18T05:05:21.212Z,5.12
2023-03-18T05:07:48.700Z,5.18
2023-03-18T05:10:16.507Z,5.12
2023-03-18T05:12:44.162Z,5.09
2023-03-18T05:15:13.071Z,5.11
2023-03-18T05:17:41.262Z,5.20
2023-03-18T05:20:13.315Z,5.29
2023-03-18T05:22:41.095Z,5.29
2023-03-18T05:25:11.053Z,5.37
2023-03-18T05:27:38.585Z,5.08
2023-03-18T05:30:07.165Z,5.13
2023-03-18T05:32:34.725Z,5.33
2023-03-18T05:35:03.715Z,5.54
2023-03-18T05:37:32.773Z,5.61
2023-03-18T05:40:00.237Z,5.57
2023-03-18T05:42:28.072Z,5.43
2023-03-18T05:44:56.930Z,5.27
2023-03-18T05:47:24.518Z,5.37
2023-03-18T05:49:52.002Z,5.40
2023-03-18T05:52:19.448Z,5.85
2023-03-18T05:54:48.271Z,6.21
2023-03-18T05:57:15.748Z,6.32
2023-03-18T05:59:43.806Z,6.50
2023-03-18T06:02:11.695Z,6.81
2023-03-18T06:04:40.085Z,6.99
2023-03-18T06:07:07.578Z,7.31
2023-03-18T06:09:35.106Z,7.36
2023-03-18T06:12:05.408Z,7.75
2023-03-18T06:14:32.871Z,7.96
2023-03-18T06:17:00.400Z,7.78
2023-03-18T06:19:30.629Z,7.94
2023-03-18T06:21:58.743Z,8.33
2023-03-18T06:24:26.417Z,8.53
2023-03-18T06:26:54.370Z,8.90
2023-03-18T06:29:23.174Z,9.34
2023-03-18T06:31:50.770Z,9.41
2023-03-18T06:34:19.071Z,9.54
2023-03-18T06:36:46.562Z,9.38
2023-03-18T06:39:14.321Z,9.19
2023-03-18T06:41:41.800Z,9.54
2023-03-18T06:44:09.280Z,9.49
2023-03-18T06:46:38.173Z,9.65
2023-03-18T06:49:05.674Z,9.62
2023-03-18T06:51:33.559Z,10.02
2023-03-18T06:54:01.465Z,10.05
2023-03-18T06:56:28.919Z,9.94
2023-03-18T06:58:56.367Z,10.32
2023-03-18T07:01:23.826Z,10.31
2023-03-18T07:03:52.695Z,10.30
2023-03-18T07:06:20.172Z,10.81
2023-03-18T07:08:47.606Z,11.24
2023-03-18T07:11:15.120Z,11.80
2023-03-18T07:13:42.570Z,12.37
2023-03-18T07:16:10.643Z,12.40
2023-03-18T07:18:38.562Z,12.32
2023-03-18T07:21:07.763Z,12.39
2023-03-18T07:23:35.237Z,12.54
2023-03-18T07:26:02.897Z,12.21
2023-03-18T07:28:30.376Z,12.17
2023-03-18T07:30:57.916Z,12.48
2023-03-18T07:33:25.853Z,12.77
2023-03-18T07:35:53.350Z,12.90
2023-03-18T07:38:22.166Z,12.72
2023-03-18T07:40:49.613Z,12.75
2023-03-18T07:43:17.293Z,12.68
2023-03-18T07:45:45.253Z,12.14
2023-03-18T07:48:12.717Z,12.38
2023-03-18T07:50:40.838Z,11.85
2023-03-18T07:53:08.402Z,11.79
2023-03-18T07:55:37.198Z,12.07
2023-03-18T07:58:05.397Z,12.41
2023-03-18T08:00:33.400Z,12.82
2023-03-18T08:03:00.853Z,13.29
2023-03-18T08:05:28.542Z,13.27
2023-03-18T08:07:56.196Z,13.59
2023-03-18T08:10:25.210Z,13.74
2023-03-18T08:12:54.210Z,14.01
2023-03-18T08:15:22.302Z,13.97
2023-03-18T08:17:49.858Z,13.85
2023-03-18T08:20:17.540Z,14.39
2023-03-18T08:22:45.922Z,14.92
2023-03-18T08:25:13.490Z,15.13
2023-03-18T08:27:41.039Z,15.09
2023-03-18T08:30:11.225Z,15.23
2023-03-18T08:32:38.984Z,15.55
2023-03-18T08:35:07.479Z,16.14
2023-03-18T08:37:35.805Z,16.18
2023-03-18T08:40:03.686Z,15.98
2023-03-18T08:42:31.131Z,16.29
2023-03-18T08:44:58.627Z,16.46
2023-03-18T08:47:29.382Z,16.51
2023-03-18T08:49:57.656Z,16.69
2023-03-18T08:52:25.495Z,16.71
2023-03-18T08:54:53.006Z,15.94
2023-03-18T08:57:20.733Z,16.05
2023-03-18T08:59:48.194Z,16.09
2023-03-18T09:02:18.312Z,16.74
2023-03-18T09:04:48.133Z,17.27
2023-03-18T09:07:18.849Z,17.38
2023-03-18T09:09:46.571Z,17.76
2023-03-18T09:12:14.969Z,17.39
2023-03-18T09:14:43.538Z,17.68
2023-03-18T09:17:11.227Z,18.60
2023-03-18T09:19:38.732Z,18.96
2023-03-18T09:22:08.826Z,18.77
2023-03-18T09:24:36.276Z,18.72
2023-03-18T09:27:03.780Z,18.92
2023-03-18T09:29:31.894Z,18.83
2023-03-18T09:32:00.539Z,18.89
2023-03-18T09:34:28.123Z,18.95
2023-03-18T09:36:55.586Z,18.72
2023-03-18T09:39:24.410Z,18.47
2023-03-18T09:42:08.328Z,18.99
2023-03-18T09:44:37.377Z,20.33
2023-03-18T09:47:24.543Z,21.50
2023-03-18T09:50:22.336Z,21.41
2023-03-18T09:52:56.706Z,20.94
2023-03-18T09:55:31.048Z,20.61
2023-03-18T09:58:03.301Z,20.25
2023-03-18T10:00:34.433Z,20.78
2023-03-18T10:03:06.643Z,21.15
2023-03-18T10:05:38.010Z,20.51
2023-03-18T10:08:14.183Z,20.63
2023-03-18T10:10:46.815Z,20.87
2023-03-18T10:13:22.573Z,20.88
2023-03-18T10:15:53.933Z,21.36
2023-03-18T10:18:27.839Z,21.81
2023-03-18T10:21:12.230Z,21.65
2023-03-18T10:23:52.413Z,22.43
2023-03-18T10:26:27.946Z,22.87
2023-03-18T10:29:19.155Z,22.60
2023-03-18T10:32:00.638Z,22.92
2023-03-18T10:34:34.846Z,23.52
2023-03-18T10:37:07.718Z,23.92
2023-03-18T10:39:37.893Z,23.79
2023-03-18T10:42:20.544Z,23.85
2023-03-18T10:44:48.719Z,24.65
2023-03-18T10:47:21.037Z,24.17
2023-03-18T10:49:59.396Z,24.53
2023-03-18T10:52:34.640Z,24.62
2023-03-18T10:55:02.127Z,25.13
2023-03-18T10:57:32.513Z,25.22
2023-03-18T10:59:59.949Z,24.72
2023-03-18T11:02:34.155Z,24.11
2023-03-18T11:05:05.451Z,23.83
2023-03-18T11:07:33.236Z,23.79
2023-03-18T11:10:13.959Z,24.66
2023-03-18T11:12:43.452Z,25.39
2023-03-18T11:15:12.797Z,25.55
2023-03-18T11:17:40.769Z,25.14
2023-03-18T11:20:22.001Z,25.64
2023-03-18T11:22:52.126Z,25.93
2023-03-18T11:25:24.001Z,25.81
2023-03-18T11:27:58.072Z,25.60
2023-03-18T11:30:34.465Z,25.82
2023-03-18T11:33:06.999Z,24.87
2023-03-18T11:35:40.670Z,24.61
2023-03-18T11:38:15.883Z,24.15
2023-03-18T11:40:43.643Z,24.16
2023-03-18T11:43:19.657Z,24.77
2023-03-18T11:45:52.213Z,25.75
2023-03-18T11:48:28.942Z,25.94
2023-03-18T11:51:10.686Z,26.27
2023-03-18T11:53:51.181Z,25.77
2023-03-18T11:56:28.328Z,26.15
2023-03-18T11:59:22.702Z,26.63
2023-03-18T12:02:01.271Z,26.32
2023-03-18T12:04:46.224Z,25.85
2023-03-18T12:07:27.314Z,25.78
2023-03-18T12:10:04.279Z,25.77
2023-03-18T12:12:49.630Z,26.41
2023-03-18T12:15:31.528Z,26.40
2023-03-18T12:18:07.355Z,26.49
2023-03-18T12:20:49.232Z,25.92
2023-03-18T12:23:43.705Z,26.23
2023-03-18T12:26:16.634Z,26.32
2023-03-18T12:29:09.464Z,25.26
2023-03-18T12:31:54.539Z,25.15
2023-03-18T12:34:35.810Z,24.87
2023-03-18T12:37:18.777Z,24.94
2023-03-18T12:40:18.587Z,24.28
2023-03-18T12:43:03.250Z,24.78
2023-03-18T12:45:36.620Z,24.87
2023-03-18T12:48:11.049Z,25.33
2023-03-18T12:50:42.375Z,24.97
2023-03-18T12:53:16.737Z,25.34
2023-03-18T12:55:47.883Z,25.06
2023-03-18T12:58:19.045Z,25.82
2023-03-18T13:00:52.216Z,26.01
2023-03-18T13:03:32.186Z,26.36
2023-03-18T13:06:04.583Z,26.77
2023-03-18T13:08:50.631Z,26.71
2023-03-18T13:11:37.469Z,25.83
2023-03-18T13:14:12.155Z,25.13
2023-03-18T13:16:41.151Z,25.44
2023-03-18T13:19:11.782Z,25.16
2023-03-18T13:21:44.224Z,25.26
2023-03-18T13:24:32.779Z,25.60
2023-03-18T13:27:26.613Z,25.04
2023-03-18T13:30:02.756Z,26.05
2023-03-18T13:32:54.060Z,25.75
2023-03-18T13:35:44.835Z,25.04
2023-03-18T13:38:29.088Z,26.17
2023-03-18T13:41:14.845Z,26.19
2023-03-18T13:43:49.069Z,26.81
2023-03-18T13:46:20.948Z,26.78
2023-03-18T13:48:50.038Z,26.75
2023-03-18T13:51:49.265Z,26.49
2023-03-18T13:54:20.649Z,26.84
2023-03-18T13:56:52.716Z,26.26
2023-03-18T13:59:48.462Z,27.01
2023-03-18T14:02:43.606Z,26.37
2023-03-18T14:05:36.848Z,26.13
2023-03-18T14:08:07.086Z,26.75
2023-03-18T14:10:36.366Z,26.60
2023-03-18T14:13:27.415Z,26.18
2023-03-18T14:15:57.366Z,25.24
2023-03-18T14:18:28.111Z,25.42
2023-03-18T14:21:01.361Z,25.72
2023-03-18T14:23:42.878Z,24.90
2023-03-18T14:26:23.381Z,24.33
2023-03-18T14:28:56.006Z,24.42
2023-03-18T14:31:33.336Z,24.71
2023-03-18T14:34:20.731Z,24.57
2023-03-18T14:37:18.713Z,24.70
2023-03-18T14:39:49.154Z,25.56
2023-03-18T14:42:29.661Z,25.75
2023-03-18T14:45:04.550Z,25.99
2023-03-18T14:47:42.393Z,24.76
2023-03-18T14:50:17.015Z,24.23
2023-03-18T14:52:49.397Z,23.90
2023-03-18T14:55:20.592Z,24.23
2023-03-18T14:57:49.440Z,24.02
2023-03-18T15:00:18.323Z,23.85
2023-03-18T15:02:46.590Z,24.23
2023-03-18T15:05:18.763Z,24.19
2023-03-18T15:07:52.710Z,23.39
2023-03-18T15:10:21.930Z,23.14
2023-03-18T15:13:00.960Z,23.45
2023-03-18T15:15:28.438Z,23.14
2023-03-18T15:17:55.915Z,23.06
2023-03-18T15:20:24.120Z,22.48
2023-03-18T15:22:52.766Z,22.33
2023-03-18T15:25:22.957Z,21.54
2023-03-18T15:27:51.381Z,21.85
2023-03-18T15:30:29.075Z,21.68
2023-03-18T15:33:04.545Z,21.74
2023-03-18T15:35:32.736Z,21.28
2023-03-18T15:38:08.107Z,21.40
2023-03-18T15:40:37.938Z,20.86
2023-03-18T15:43:17.729Z,20.62
2023-03-18T15:45:48.691Z,20.78
2023-03-18T15:48:24.571Z,20.41
2023-03-18T15:50:56.870Z,20.67
2023-03-18T15:53:26.820Z,20.82
2023-03-18T15:55:56.354Z,20.89
2023-03-18T15:58:27.292Z,20.84
2023-03-18T16:00:57.742Z,20.61
2023-03-18T16:03:27.149Z,20.36
2023-03-18T16:05:55.135Z,20.35
2023-03-18T16:08:23.643Z,19.72
2023-03-18T16:10:54.574Z,19.28
2023-03-18T16:13:24.534Z,19.01
2023-03-18T16:15:53.136Z,18.50
2023-03-18T16:18:22.071Z,18.25
2023-03-18T16:20:50.315Z,18.38
2023-03-18T16:23:19.086Z,18.51
2023-03-18T16:25:48.780Z,18.13
2023-03-18T16:28:20.616Z,18.22
2023-03-18T16:30:49.500Z,18.20
2023-03-18T16:33:18.932Z,18.00
2023-03-18T16:35:58.438Z,18.14
2023-03-18T16:38:28.372Z,18.32
2023-03-18T16:40:57.478Z,18.06
2023-03-18T16:43:27.247Z,17.92
2023-03-18T16:45:58.426Z,17.98
2023-03-18T16:48:27.692Z,17.95
2023-03-18T16:50:57.887Z,17.84
2023-03-18T16:53:27.606Z,17.83
2023-03-18T16:55:58.262Z,17.81
2023-03-18T16:58:29.729Z,17.58
2023-03-18T17:00:57.888Z,17.35
2023-03-18T17:03:25.402Z,17.29
2023-03-18T17:05:53.774Z,17.20
2023-03-18T17:08:23.023Z,16.91
2023-03-18T17:10:52.565Z,16.59
2023-03-18T17:13:23.285Z,16.47
2023-03-18T17:15:52.068Z,16.38
2023-03-18T17:18:21.717Z,16.26
2023-03-18T17:20:49.935Z,15.94
2023-03-18T17:23:19.524Z,15.95
2023-03-18T17:25:53.709Z,15.53
2023-03-18T17:28:34.355Z,15.29
2023-03-18T17:31:02.150Z,15.24
2023-03-18T17:33:31.906Z,15.09
2023-03-18T17:36:01.551Z,14.95
2023-03-18T17:38:30.660Z,14.80
2023-03-18T17:41:00.272Z,14.73
2023-03-18T17:43:30.212Z,14.49
2023-03-18T17:45:58.819Z,14.21
2023-03-18T17:48:28.542Z,14.14
2023-03-18T17:50:58.266Z,14.19
2023-03-18T17:53:28.678Z,14.15
2023-03-18T17:55:57.097Z,14.07
2023-03-18T17:58:27.586Z,14.10
2023-03-18T18:00:57.857Z,14.01
2023-03-18T18:03:27.724Z,13.94
2023-03-18T18:05:56.283Z,13.68
2023-03-18T18:08:25.979Z,13.47
2023-03-18T18:10:55.630Z,13.72
2023-03-18T18:13:23.894Z,13.71
2023-03-18T18:15:52.771Z,13.61
2023-03-18T18:18:25.366Z,13.45
2023-03-18T18:20:55.687Z,13.28
2023-03-18T18:23:35.405Z,13.01
2023-03-18T18:26:04.971Z,12.95
2023-03-18T18:28:34.619Z,12.93
2023-03-18T18:31:05.376Z,12.74
2023-03-18T18:33:34.529Z,12.46
2023-03-18T18:36:02.775Z,12.35
2023-03-18T18:38:30.765Z,12.26
2023-03-18T18:41:00.029Z,12.36
2023-03-18T18:43:27.861Z,12.37
2023-03-18T18:45:57.494Z,12.38
2023-03-18T18:48:30.333Z,12.07
2023-03-18T18:50:58.517Z,11.88
2023-03-18T18:53:27.849Z,11.96
2023-03-18T18:55:57.616Z,12.14
2023-03-18T18:58:29.464Z,12.07
2023-03-18T19:00:57.693Z,12.08
2023-03-18T19:03:31.003Z,12.01
2023-03-18T19:05:59.677Z,11.81
2023-03-18T19:08:31.390Z,11.31
2023-03-18T19:11:00.910Z,10.81
2023-03-18T19:13:30.624Z,10.66
2023-03-18T19:16:00.745Z,11.10
2023-03-18T19:18:35.752Z,11.30
2023-03-18T19:21:03.201Z,11.04
2023-03-18T19:23:33.162Z,11.05
2023-03-18T19:26:01.569Z,11.02
2023-03-18T19:28:47.858Z,11.03
2023-03-18T19:31:20.596Z,10.77
2023-03-18T19:33:51.590Z,10.74
2023-03-18T19:36:25.158Z,10.88
2023-03-18T19:38:53.520Z,10.70
2023-03-18T19:41:21.572Z,10.35
2023-03-18T19:43:49.546Z,9.93
2023-03-18T19:46:18.817Z,10.23
2023-03-18T19:48:47.003Z,10.37
2023-03-18T19:51:16.587Z,10.43
2023-03-18T19:53:45.198Z,10.06
2023-03-18T19:56:25.126Z,10.00
2023-03-18T19:58:54.008Z,9.92
2023-03-18T20:01:22.007Z,9.99
2023-03-18T20:03:50.121Z,9.97
2023-03-18T20:06:18.912Z,10.19
2023-03-18T20:08:46.571Z,10.08
2023-03-18T20:11:15.470Z,10.07
2023-03-18T20:13:44.105Z,9.80
2023-03-18T20:16:14.608Z,9.21
2023-03-18T20:18:42.751Z,9.40
2023-03-18T20:21:18.573Z,9.55
2023-03-18T20:23:47.504Z,9.75
2023-03-18T20:26:15.665Z,9.75
2023-03-18T20:28:45.454Z,9.66
2023-03-18T20:31:14.352Z,9.69
2023-03-18T20:33:41.881Z,9.54
2023-03-18T20:36:16.217Z,9.54
2023-03-18T20:38:45.983Z,9.58
2023-03-18T20:41:17.869Z,9.58
2023-03-18T20:43:45.577Z,9.50
2023-03-18T20:46:15.570Z,9.60
2023-03-18T20:48:44.190Z,9.51
2023-03-18T20:51:21.101Z,9.25
2023-03-18T20:53:49.298Z,9.54
2023-03-18T20:56:19.352Z,9.42
2023-03-18T20:58:46.851Z,9.48
2023-03-18T21:01:14.980Z,9.63
2023-03-18T21:03:42.894Z,9.75
2023-03-18T21:06:13.916Z,9.83
2023-03-18T21:08:42.007Z,9.85
2023-03-18T21:11:20.963Z,9.87
2023-03-18T21:13:48.920Z,9.85
2023-03-18T21:16:18.261Z,9.71
2023-03-18T21:18:46.392Z,9.72
2023-03-18T21:21:20.560Z,9.75
2023-03-18T21:23:48.205Z,9.70
2023-03-18T21:26:15.933Z,9.62
2023-03-18T21:28:44.754Z,9.39
2023-03-18T21:31:23.859Z,9.39
2023-03-18T21:33:51.446Z,9.41
2023-03-18T21:36:18.969Z,9.52
2023-03-18T21:38:46.929Z,9.37
2023-03-18T21:41:22.074Z,9.33
2023-03-18T21:43:51.499Z,9.25
2023-03-18T21:46:21.161Z,9.23
2023-03-18T21:48:48.976Z,9.23
2023-03-18T21:51:37.471Z,9.18
2023-03-18T21:54:06.210Z,9.08
2023-03-18T21:56:33.859Z,8.78
2023-03-18T21:59:02.654Z,8.63
2023-03-18T22:01:32.218Z,8.82
2023-03-18T22:03:59.990Z,9.10
2023-03-18T22:06:27.492Z,9.22
2023-03-18T22:08:56.723Z,9.18
2023-03-18T22:11:24.184Z,9.17
2023-03-18T22:13:51.704Z,9.23
2023-03-18T22:16:20.594Z,9.24
2023-03-18T22:18:48.198Z,9.29
2023-03-18T22:21:19.914Z,9.37
2023-03-18T22:23:47.430Z,9.35
2023-03-18T22:26:16.683Z,9.37
2023-03-18T22:28:44.592Z,9.27
2023-03-18T22:31:20.767Z,9.09
2023-03-18T22:33:48.413Z,9.10
2023-03-18T22:36:17.272Z,9.14
2023-03-18T22:38:45.807Z,9.20
2023-03-18T22:41:20.988Z,9.10
2023-03-18T22:43:48.825Z,9.01
2023-03-18T22:46:16.584Z,9.00
2023-03-18T22:48:45.523Z,9.02
2023-03-18T22:51:22.887Z,9.04
2023-03-18T22:53:52.636Z,8.92
2023-03-18T22:56:21.152Z,8.85
2023-03-18T22:58:48.640Z,8.84
2023-03-18T23:01:18.560Z,8.86
2023-03-18T23:03:47.814Z,8.79
2023-03-18T23:06:17.537Z,8.76
2023-03-18T23:08:46.472Z,8.74
2023-03-18T23:11:14.982Z,8.60
2023-03-18T23:13:43.685Z,8.58
2023-03-18T23:16:15.261Z,8.62
2023-03-18T23:18:42.952Z,8.59
2023-03-18T23:21:16.667Z,8.40
2023-03-18T23:23:44.221Z,8.41
2023-03-18T23:26:11.796Z,8.46
2023-03-18T23:28:44.549Z,8.38
2023-03-18T23:31:13.339Z,8.68
2023-03-18T23:33:40.970Z,8.68
2023-03-18T23:36:09.258Z,8.73
2023-03-18T23:38:38.671Z,8.82
2023-03-18T23:41:07.048Z,8.80
2023-03-18T23:43:34.622Z,8.88
2023-03-18T23:46:03.611Z,8.76
2023-03-18T23:48:31.105Z,8.70
2023-03-18T23:50:58.620Z,8.87
2023-03-18T23:53:26.119Z,8.86
2023-03-18T23:55:54.914Z,8.67
2023-03-18T23:58:22.431Z,8.57
